Terminal Aerodrome Forecast
Issued by NWS Charleston, WV

Current Version | Previous Version | Graphics & Text | Print | Product List | Glossary On
Versions: 1 2 3 4 5 6 7 8 9 10 11 12 13 14 15 16 17 18 19 20 21 22 23
000
FTUS41 KRLX 281700
TAFCRW
TAF
KCRW 281737Z 2818/2918 36004KT P6SM SCT030
     FM282000 36004KT P6SM SCT035
     FM290400 00000KT 6SM BR SCT070
     FM290600 00000KT 3SM BR SCT080
     FM290800 00000KT 2SM BR SCT090
     FM291100 00000KT 3SM BR SCT080
     FM291300 00000KT P6SM SCT070=

USA.gov is the U.S. government's official web portal to all federal, state and local government web resources and services.